Time;durP1;ratioP1;P1;durP2;ratioP2;P2;SDS_P1;SDS_P2;PMS_P1;PMS_P2;Temp;Humidity;BMP_temperature;BMP_pressure;BME280_temperature;BME280_humidity;BME280_pressure;Samples;Min_cycle;Max_cycle;Signal;HPM_P1;HPM_P2
2022/12/30 00:00:22;;;;;;;28.38;4.72;;;6.50;99.90;;;;;;5113059;28;20071;-61
2022/12/30 00:02:47;;;;;;;22.90;3.83;;;6.40;99.90;;;;;;5094333;28;20483;-61
2022/12/30 00:05:13;;;;;;;26.42;4.40;;;6.40;99.90;;;;;;5113263;28;20119;-62
2022/12/30 00:07:38;;;;;;;29.35;3.65;;;6.30;99.90;;;;;;5112349;28;20042;-61
2022/12/30 00:10:04;;;;;;;20.63;4.97;;;6.30;99.90;;;;;;5113256;28;20044;-62
2022/12/30 00:35:07;;;;;;;20.63;4.05;;;6.30;99.90;;;;;;5112593;28;20079;-61
2022/12/30 00:37:33;;;;;;;25.05;4.00;;;6.20;99.90;;;;;;5094605;28;20047;-61
2022/12/30 00:39:58;;;;;;;20.40;3.30;;;6.30;99.90;;;;;;5112329;28;20534;-62
2022/12/30 00:45:08;;;;;;;19.73;4.65;;;6.30;99.90;;;;;;5112460;28;20084;-61
2022/12/30 00:47:34;;;;;;;21.42;4.15;;;6.20;99.90;;;;;;5112466;28;20039;-61
2022/12/30 00:58:14;;;;;;;23.60;3.80;;;6.10;99.90;;;;;;5112278;28;20130;-62
2022/12/30 01:00:40;;;;;;;25.50;3.58;;;6.10;99.90;;;;;;5112132;28;20127;-62
2022/12/30 01:03:05;;;;;;;22.25;3.97;;;6.00;99.90;;;;;;5112079;28;20031;-62
2022/12/30 01:05:31;;;;;;;19.13;4.20;;;5.90;99.90;;;;;;5112144;28;20028;-61
2022/12/30 01:07:56;;;;;;;32.13;5.20;;;6.00;99.90;;;;;;5112331;28;20115;-62
2022/12/30 01:10:22;;;;;;;24.10;4.10;;;6.00;99.90;;;;;;5111995;28;20044;-62
2022/12/30 01:12:48;;;;;;;23.65;4.88;;;6.00;99.90;;;;;;5112035;28;20075;-62
2022/12/30 01:15:14;;;;;;;29.17;4.47;;;5.90;99.90;;;;;;5111954;28;20078;-62
2022/12/30 01:17:39;;;;;;;29.73;4.82;;;5.80;99.90;;;;;;5112188;28;20522;-62
2022/12/30 01:20:07;;;;;;;23.20;4.03;;;5.80;99.90;;;;;;5116576;28;20047;-62
2022/12/30 01:22:33;;;;;;;31.65;4.85;;;5.90;99.90;;;;;;5116586;28;20074;-62
2022/12/30 01:24:58;;;;;;;21.92;4.55;;;5.80;99.90;;;;;;5116165;28;20373;-62
2022/12/30 01:27:24;;;;;;;26.02;5.65;;;5.80;99.90;;;;;;5116132;28;20043;-61
2022/12/30 01:29:50;;;;;;;21.42;3.72;;;5.80;99.90;;;;;;5115906;28;20085;-62
2022/12/30 01:32:19;;;;;;;20.27;4.13;;;5.80;99.90;;;;;;5115851;28;20100;-62
2022/12/30 01:34:45;;;;;;;17.48;4.07;;;5.80;99.90;;;;;;5116116;28;20381;-62
2022/12/30 01:37:12;;;;;;;29.00;4.97;;;5.70;99.90;;;;;;5115924;28;20384;-61
2022/12/30 01:39:38;;;;;;;27.80;3.97;;;5.80;99.90;;;;;;5115892;28;20043;-61
2022/12/30 01:42:27;;;;;;;29.95;4.18;;;5.80;99.90;;;;;;5115864;28;20066;-62
2022/12/30 01:45:13;;;;;;;26.10;5.05;;;5.70;99.90;;;;;;5116164;28;20456;-62
2022/12/30 01:48:02;;;;;;;26.45;4.93;;;5.80;99.90;;;;;;5115836;28;20040;-62
2022/12/30 01:50:38;;;;;;;17.40;3.58;;;5.70;99.90;;;;;;5116078;28;20042;-62
2022/12/30 01:53:06;;;;;;;21.42;4.22;;;5.70;99.90;;;;;;5115497;28;20504;-62
2022/12/30 01:55:39;;;;;;;30.47;4.27;;;5.80;99.90;;;;;;5115308;28;20043;-62
2022/12/30 01:58:14;;;;;;;25.23;4.35;;;5.70;99.90;;;;;;5115585;28;20121;-62
2022/12/30 02:00:40;;;;;;;23.98;3.58;;;5.80;99.90;;;;;;5115540;28;20039;-62
2022/12/30 02:03:07;;;;;;;20.83;3.20;;;5.80;99.90;;;;;;5115557;28;20070;-62
2022/12/30 02:05:37;;;;;;;27.33;3.97;;;5.80;99.90;;;;;;5115072;28;20036;-62
2022/12/30 02:08:08;;;;;;;25.45;3.28;;;5.90;99.90;;;;;;5115724;28;20040;-62
2022/12/30 02:10:37;;;;;;;18.58;4.10;;;5.90;99.90;;;;;;5115170;28;20082;-62
2022/12/30 02:13:03;;;;;;;23.30;4.03;;;6.00;99.90;;;;;;5115229;28;20493;-62
2022/12/30 02:15:39;;;;;;;29.83;5.28;;;5.90;99.90;;;;;;5115160;28;20078;-62
2022/12/30 02:18:17;;;;;;;24.77;4.68;;;5.90;99.90;;;;;;5096425;28;20051;-62
2022/12/30 02:21:26;;;;;;;29.65;4.80;;;5.90;99.90;;;;;;5115131;28;20043;-62
2022/12/30 02:24:01;;;;;;;22.00;4.38;;;5.90;99.90;;;;;;5012405;28;20181;-61
2022/12/30 02:26:39;;;;;;;22.77;4.88;;;5.90;99.90;;;;;;5012511;28;20084;-61
2022/12/30 02:29:49;;;;;;;30.77;5.45;;;5.90;99.90;;;;;;5011972;28;20374;-62
2022/12/30 02:32:27;;;;;;;17.95;3.55;;;6.00;99.90;;;;;;4996148;28;20392;-62
2022/12/30 02:35:26;;;;;;;25.77;4.28;;;6.00;99.90;;;;;;4995703;28;20050;-62
2022/12/30 02:38:17;;;;;;;31.30;4.47;;;6.00;99.90;;;;;;4953838;29;20519;-62
2022/12/30 02:46:32;;;;;;;24.33;5.10;;;5.80;99.90;;;;;;4953721;29;20549;-61
2022/12/30 02:48:59;;;;;;;16.83;2.80;;;5.90;99.90;;;;;;4953746;29;20083;-62
2022/12/30 02:54:10;;;;;;;20.50;3.58;;;5.90;99.90;;;;;;4977155;28;20042;-61
2022/12/30 02:56:35;;;;;;;18.30;3.63;;;5.90;99.90;;;;;;5031618;28;20065;-62
2022/12/30 03:05:11;;;;;;;25.25;4.13;;;5.80;99.90;;;;;;5031706;28;20084;-62
2022/12/30 03:08:10;;;;;;;21.13;3.80;;;5.90;99.90;;;;;;5031374;28;20127;-61
2022/12/30 03:11:18;;;;;;;21.42;3.50;;;5.90;99.90;;;;;;4992076;28;20046;-61
2022/12/30 03:13:49;;;;;;;21.33;2.63;;;5.80;99.90;;;;;;4992543;28;20534;-62
2022/12/30 03:16:34;;;;;;;17.88;3.67;;;5.80;99.90;;;;;;5011393;28;20061;-60
2022/12/30 03:19:04;;;;;;;23.55;3.75;;;5.80;99.90;;;;;;5011489;28;20053;-61
2022/12/30 03:21:32;;;;;;;20.27;3.72;;;5.70;99.90;;;;;;5011406;28;20423;-62
2022/12/30 03:27:05;;;;;;;18.40;3.33;;;5.80;99.90;;;;;;5031121;28;20057;-61
2022/12/30 03:29:46;;;;;;;19.65;3.55;;;5.70;99.90;;;;;;5050816;28;20171;-62
2022/12/30 03:32:14;;;;;;;21.83;3.88;;;5.80;99.90;;;;;;5050987;28;20044;-62
2022/12/30 03:34:40;;;;;;;21.10;3.97;;;5.70;99.90;;;;;;5050852;28;20132;-62
2022/12/30 03:37:28;;;;;;;21.38;3.90;;;5.60;99.90;;;;;;5050830;28;20367;-61
2022/12/30 03:40:02;;;;;;;22.90;4.22;;;5.60;99.90;;;;;;5050455;28;20045;-62
2022/12/30 03:42:29;;;;;;;13.35;2.75;;;5.60;99.90;;;;;;5049855;28;20041;-62
2022/12/30 03:44:56;;;;;;;18.13;3.55;;;5.70;99.90;;;;;;5050676;28;20052;-62
2022/12/30 03:47:21;;;;;;;20.40;4.15;;;5.60;99.90;;;;;;5068458;28;20040;-61
2022/12/30 03:49:47;;;;;;;23.33;3.85;;;5.60;99.90;;;;;;5092798;28;20032;-61
2022/12/30 03:52:14;;;;;;;20.35;3.72;;;5.60;99.90;;;;;;5092802;28;20493;-61
2022/12/30 03:54:41;;;;;;;27.73;4.75;;;5.60;99.90;;;;;;5092952;28;20036;-62
2022/12/30 03:57:07;;;;;;;24.10;3.67;;;5.50;99.90;;;;;;5092838;28;20122;-61
2022/12/30 03:59:33;;;;;;;23.85;3.92;;;5.50;99.90;;;;;;5092818;28;20123;-61
2022/12/30 04:01:59;;;;;;;28.67;4.72;;;5.40;99.90;;;;;;5092742;28;20466;-62
2022/12/30 04:04:24;;;;;;;24.00;3.97;;;5.50;99.90;;;;;;5092890;28;20044;-61
2022/12/30 04:06:50;;;;;;;28.55;4.75;;;5.50;99.90;;;;;;5092571;28;20032;-61
2022/12/30 04:09:16;;;;;;;16.45;4.20;;;5.50;99.90;;;;;;5092674;28;20036;-62
2022/12/30 04:11:41;;;;;;;24.35;4.22;;;5.50;99.90;;;;;;5092610;28;20048;-62
2022/12/30 04:14:07;;;;;;;18.15;3.90;;;5.40;99.90;;;;;;5092475;28;20036;-63
2022/12/30 04:16:33;;;;;;;20.13;4.20;;;5.50;99.90;;;;;;5092306;28;20043;-62
2022/12/30 04:18:58;;;;;;;22.23;4.28;;;5.40;99.90;;;;;;5092293;28;20051;-62
2022/12/30 04:21:24;;;;;;;24.63;4.82;;;5.30;99.90;;;;;;5092505;28;20075;-62
2022/12/30 04:23:49;;;;;;;20.08;3.78;;;5.30;99.90;;;;;;5092614;28;20058;-62
2022/12/30 04:26:15;;;;;;;23.27;4.22;;;5.40;99.90;;;;;;5092377;28;20048;-62
2022/12/30 04:28:41;;;;;;;28.20;5.18;;;5.50;99.90;;;;;;5092469;28;20443;-62
2022/12/30 04:31:06;;;;;;;23.60;4.03;;;5.40;99.90;;;;;;5092138;28;20444;-61
2022/12/30 04:33:32;;;;;;;15.50;3.60;;;5.50;99.90;;;;;;5092199;28;20047;-62
2022/12/30 04:35:57;;;;;;;24.48;3.92;;;5.60;99.90;;;;;;5074175;28;20075;-61
2022/12/30 04:38:24;;;;;;;20.38;3.75;;;5.60;99.90;;;;;;5092061;28;20510;-61
2022/12/30 04:40:49;;;;;;;24.73;3.90;;;5.60;99.90;;;;;;5092188;28;20051;-61
2022/12/30 04:43:15;;;;;;;17.17;3.75;;;5.60;99.90;;;;;;5092341;28;20378;-62
2022/12/30 04:45:41;;;;;;;19.10;3.40;;;5.60;99.90;;;;;;5091971;28;20040;-62
2022/12/30 04:48:06;;;;;;;16.40;3.78;;;5.50;99.90;;;;;;5091882;28;20028;-61
2022/12/30 04:50:32;;;;;;;23.17;4.20;;;5.60;99.90;;;;;;5092131;28;20492;-62
2022/12/30 04:52:58;;;;;;;21.55;3.10;;;5.50;99.90;;;;;;5073459;28;20048;-61
2022/12/30 04:55:23;;;;;;;23.30;4.10;;;5.60;99.90;;;;;;5091877;28;20047;-61
2022/12/30 04:57:49;;;;;;;21.63;3.83;;;5.50;99.90;;;;;;5091874;28;20393;-62
2022/12/30 05:00:15;;;;;;;14.82;4.13;;;5.70;99.90;;;;;;5091871;28;20402;-61
2022/12/30 05:02:40;;;;;;;19.83;3.83;;;5.50;99.90;;;;;;5091882;28;20043;-63
2022/12/30 05:05:06;;;;;;;13.88;3.65;;;5.50;99.90;;;;;;5073807;28;20040;-62
2022/12/30 05:07:32;;;;;;;21.58;3.72;;;5.70;99.90;;;;;;5091842;28;20474;-62
2022/12/30 05:09:58;;;;;;;19.98;4.03;;;5.70;99.90;;;;;;5091845;28;20032;-62
2022/12/30 05:12:24;;;;;;;20.25;4.38;;;5.60;99.90;;;;;;5091820;28;20079;-62
2022/12/30 05:14:49;;;;;;;16.10;4.15;;;5.70;99.90;;;;;;5091425;28;20040;-62
2022/12/30 05:17:15;;;;;;;20.50;5.25;;;5.70;99.90;;;;;;5091721;28;20036;-62
2022/12/30 05:19:41;;;;;;;25.17;6.07;;;5.70;99.90;;;;;;5091549;28;20119;-61
2022/12/30 05:22:06;;;;;;;21.13;5.47;;;5.80;99.90;;;;;;5091811;28;20036;-62
2022/12/30 05:27:16;;;;;;;17.92;5.72;;;5.80;99.90;;;;;;5091541;28;20603;-63
2022/12/30 05:29:42;;;;;;;17.50;5.90;;;5.80;99.90;;;;;;5091235;28;20122;-61
2022/12/30 05:32:08;;;;;;;16.02;5.70;;;5.90;99.90;;;;;;5073330;28;20083;-61
2022/12/30 05:34:33;;;;;;;24.13;6.40;;;5.80;99.90;;;;;;5091752;28;20040;-61
2022/12/30 05:36:59;;;;;;;18.42;6.15;;;5.90;99.90;;;;;;5091854;28;20482;-62
2022/12/30 05:39:25;;;;;;;21.02;5.40;;;5.90;99.90;;;;;;5091668;28;20036;-63
2022/12/30 05:41:50;;;;;;;20.60;5.07;;;5.80;99.90;;;;;;5090548;28;20035;-61
2022/12/30 05:44:16;;;;;;;20.63;4.93;;;5.80;99.90;;;;;;5091048;28;20059;-62
2022/12/30 05:46:41;;;;;;;21.90;5.97;;;5.90;99.90;;;;;;5073365;28;20394;-62
2022/12/30 05:49:07;;;;;;;17.20;5.60;;;5.80;99.90;;;;;;5091599;28;20036;-62
2022/12/30 05:51:33;;;;;;;24.05;5.00;;;5.80;99.90;;;;;;5091428;28;20505;-62
2022/12/30 05:53:58;;;;;;;25.00;5.82;;;5.90;99.90;;;;;;5091350;28;20486;-61
2022/12/30 05:56:24;;;;;;;21.67;5.97;;;5.80;99.90;;;;;;5091304;28;20051;-61
2022/12/30 05:58:49;;;;;;;24.20;5.93;;;5.70;99.90;;;;;;5091297;28;20028;-62
2022/12/30 06:01:15;;;;;;;14.88;5.90;;;5.70;99.90;;;;;;5091462;28;20062;-61
2022/12/30 06:03:41;;;;;;;19.40;5.60;;;5.90;99.90;;;;;;5090220;28;20048;-62
2022/12/30 06:06:08;;;;;;;25.42;5.82;;;5.70;99.90;;;;;;5091736;28;20119;-62
2022/12/30 06:08:34;;;;;;;21.40;5.82;;;5.60;99.90;;;;;;5092610;28;20473;-62
2022/12/30 06:11:00;;;;;;;19.75;5.97;;;5.60;99.90;;;;;;5095019;28;20036;-62
2022/12/30 06:13:26;;;;;;;16.35;5.40;;;5.70;99.90;;;;;;5076782;28;20500;-62
2022/12/30 06:15:51;;;;;;;16.92;4.82;;;5.60;99.90;;;;;;5094678;28;20454;-62
2022/12/30 06:18:17;;;;;;;15.23;5.57;;;5.60;99.90;;;;;;5095172;28;20040;-62
2022/12/30 06:20:47;;;;;;;19.30;4.47;;;5.50;99.90;;;;;;5076652;28;20631;-62
2022/12/30 06:23:13;;;;;;;12.57;3.88;;;5.50;99.90;;;;;;5075929;28;20131;-61
2022/12/30 06:25:39;;;;;;;12.90;3.92;;;5.40;99.90;;;;;;5094726;28;20076;-62
2022/12/30 06:28:05;;;;;;;17.52;5.47;;;5.30;99.90;;;;;;5094823;28;20857;-62
2022/12/30 06:30:31;;;;;;;13.98;4.10;;;5.20;99.90;;;;;;5094901;28;20036;-62
2022/12/30 06:32:57;;;;;;;18.00;4.13;;;5.20;99.90;;;;;;5094502;28;20036;-62
2022/12/30 06:35:23;;;;;;;15.55;4.00;;;5.30;99.90;;;;;;5093679;28;20040;-62
2022/12/30 06:37:49;;;;;;;21.48;5.45;;;5.10;99.90;;;;;;5094491;28;20069;-62
2022/12/30 06:40:14;;;;;;;15.00;3.85;;;5.20;99.90;;;;;;5076175;28;20048;-62
2022/12/30 06:42:40;;;;;;;12.60;4.05;;;5.20;99.90;;;;;;5094174;28;20394;-62
2022/12/30 06:45:07;;;;;;;16.25;4.13;;;5.20;99.90;;;;;;5094414;28;20115;-62
2022/12/30 06:47:32;;;;;;;18.08;5.22;;;5.20;99.90;;;;;;5094380;28;20047;-62
2022/12/30 06:49:58;;;;;;;17.48;4.47;;;5.10;99.90;;;;;;5094213;28;20386;-62
2022/12/30 06:52:24;;;;;;;15.10;3.70;;;5.10;99.90;;;;;;5094203;28;20123;-62
2022/12/30 06:54:49;;;;;;;15.90;3.47;;;5.10;99.90;;;;;;5094029;28;20110;-62
2022/12/30 06:57:15;;;;;;;13.60;4.05;;;5.10;99.90;;;;;;5093885;28;20040;-62
2022/12/30 06:59:40;;;;;;;16.50;3.90;;;5.10;99.90;;;;;;5094067;28;20040;-62
2022/12/30 07:02:06;;;;;;;19.15;3.60;;;5.10;99.90;;;;;;5058976;28;20047;-62
2022/12/30 07:04:32;;;;;;;17.90;3.90;;;5.00;99.90;;;;;;5093037;28;20031;-62
2022/12/30 07:06:58;;;;;;;13.32;3.22;;;4.90;99.90;;;;;;5092474;28;20060;-62
2022/12/30 07:09:23;;;;;;;15.52;3.53;;;5.00;99.90;;;;;;5093741;28;20496;-62
2022/12/30 07:11:49;;;;;;;18.20;3.15;;;5.00;99.90;;;;;;5093768;28;20370;-62
2022/12/30 07:14:14;;;;;;;21.27;4.13;;;4.80;99.90;;;;;;5075606;28;20044;-62
2022/12/30 07:16:40;;;;;;;20.00;3.90;;;4.80;99.90;;;;;;5075259;28;20040;-62
2022/12/30 07:19:06;;;;;;;12.23;3.72;;;4.90;99.90;;;;;;5093505;28;20035;-63
2022/12/30 07:21:32;;;;;;;15.10;3.25;;;4.80;99.90;;;;;;5093637;28;20064;-63
2022/12/30 07:23:59;;;;;;;18.25;3.25;;;4.90;99.90;;;;;;5099357;28;20047;-62
2022/12/30 07:26:24;;;;;;;15.23;3.58;;;4.90;99.90;;;;;;5113642;28;20052;-62
2022/12/30 07:28:53;;;;;;;13.20;3.90;;;5.00;99.90;;;;;;5114038;28;20039;-62
2022/12/30 07:31:19;;;;;;;20.08;3.42;;;4.90;99.90;;;;;;5113830;28;20051;-62
2022/12/30 07:33:46;;;;;;;14.75;3.60;;;4.90;99.90;;;;;;5113410;28;20057;-62
2022/12/30 07:36:11;;;;;;;19.40;3.60;;;4.90;99.90;;;;;;5094753;28;20043;-62
2022/12/30 07:38:37;;;;;;;13.70;3.13;;;4.90;99.90;;;;;;5113519;28;20123;-62
2022/12/30 07:41:03;;;;;;;18.83;3.22;;;4.90;99.90;;;;;;5113363;28;20043;-62
2022/12/30 07:43:29;;;;;;;21.92;3.83;;;4.80;99.90;;;;;;5113550;28;20047;-62
2022/12/30 07:45:54;;;;;;;13.50;3.20;;;4.80;99.90;;;;;;5113522;28;20036;-60
2022/12/30 07:48:20;;;;;;;11.82;3.00;;;4.80;99.90;;;;;;5113390;28;20038;-62
2022/12/30 07:50:45;;;;;;;19.70;3.58;;;4.80;99.90;;;;;;5095195;28;20439;-61
2022/12/30 07:53:11;;;;;;;15.32;3.63;;;4.90;99.90;;;;;;5113315;28;20069;-61
2022/12/30 07:55:40;;;;;;;15.75;3.65;;;4.80;99.90;;;;;;5113027;28;20078;-61
2022/12/30 07:58:07;;;;;;;10.23;2.70;;;4.90;99.90;;;;;;5113363;28;20044;-62
2022/12/30 08:00:33;;;;;;;16.15;3.25;;;4.80;99.90;;;;;;5112944;28;20118;-61
2022/12/30 08:02:59;;;;;;;17.13;3.03;;;4.70;99.90;;;;;;5112836;28;20488;-61
2022/12/30 08:05:24;;;;;;;12.90;3.40;;;4.80;99.90;;;;;;5111330;28;20039;-61
2022/12/30 08:07:53;;;;;;;15.77;2.95;;;4.90;99.90;;;;;;5113247;28;20050;-62
2022/12/30 08:10:19;;;;;;;20.70;3.75;;;4.90;99.90;;;;;;5112935;28;20044;-62
2022/12/30 08:12:46;;;;;;;10.02;2.33;;;4.80;99.90;;;;;;5113157;28;20051;-61
2022/12/30 08:15:11;;;;;;;16.15;3.20;;;4.80;99.90;;;;;;5113223;28;20047;-61
2022/12/30 08:17:37;;;;;;;22.35;3.70;;;4.90;99.90;;;;;;5113284;28;20779;-61
2022/12/30 08:20:06;;;;;;;19.70;3.60;;;4.90;99.90;;;;;;5112750;28;20119;-61
2022/12/30 08:22:32;;;;;;;16.10;3.90;;;4.90;99.90;;;;;;5112966;28;20572;-61
2022/12/30 08:24:57;;;;;;;14.60;3.05;;;4.90;99.90;;;;;;5112761;28;20051;-61
2022/12/30 08:27:23;;;;;;;17.70;4.03;;;4.80;99.90;;;;;;5112439;28;20032;-62
2022/12/30 08:29:48;;;;;;;15.10;3.17;;;4.90;99.90;;;;;;5112467;28;20062;-62
2022/12/30 08:32:14;;;;;;;20.55;3.83;;;4.90;99.90;;;;;;5112696;28;20081;-61
2022/12/30 08:34:40;;;;;;;16.58;3.72;;;5.00;99.90;;;;;;5111438;28;20075;-61
2022/12/30 08:37:05;;;;;;;23.23;3.50;;;5.00;99.90;;;;;;5110984;28;20099;-61
2022/12/30 08:39:31;;;;;;;18.23;3.88;;;5.00;99.90;;;;;;5111086;28;20531;-61
2022/12/30 08:41:57;;;;;;;14.82;3.47;;;5.10;99.90;;;;;;5093860;28;20036;-63
2022/12/30 08:44:23;;;;;;;17.88;3.15;;;5.10;99.90;;;;;;5112624;28;20047;-61
2022/12/30 08:46:48;;;;;;;17.35;3.42;;;5.10;99.90;;;;;;5112332;28;20054;-62
2022/12/30 08:49:14;;;;;;;16.90;4.32;;;5.10;99.90;;;;;;5112348;28;20493;-62
2022/12/30 08:51:40;;;;;;;16.50;3.13;;;5.10;99.90;;;;;;5112248;28;20036;-62
2022/12/30 08:54:06;;;;;;;21.33;4.15;;;5.20;99.90;;;;;;5112258;28;20362;-62
2022/12/30 08:56:34;;;;;;;16.63;3.47;;;5.20;99.90;;;;;;5094362;28;20032;-61
2022/12/30 08:59:00;;;;;;;19.25;3.92;;;5.10;99.90;;;;;;5112277;28;20035;-61
2022/12/30 09:01:41;;;;;;;14.82;3.70;;;5.20;99.90;;;;;;5111960;28;20036;-61
2022/12/30 09:04:08;;;;;;;19.70;4.28;;;5.30;99.90;;;;;;5093452;28;20075;-62
2022/12/30 09:06:37;;;;;;;12.88;3.42;;;5.30;99.90;;;;;;5112151;28;20027;-62
2022/12/30 09:09:04;;;;;;;15.90;3.55;;;5.30;99.90;;;;;;5112092;28;20036;-62
2022/12/30 09:11:32;;;;;;;15.85;4.03;;;5.30;99.90;;;;;;5112169;28;20122;-61
2022/12/30 09:13:59;;;;;;;13.27;3.28;;;5.40;99.90;;;;;;5111861;28;20513;-62
2022/12/30 09:16:25;;;;;;;15.18;3.63;;;5.30;99.90;;;;;;5112349;28;20034;-62
2022/12/30 09:18:52;;;;;;;12.63;2.70;;;5.40;99.90;;;;;;5111964;28;20040;-61
2022/12/30 09:21:18;;;;;;;16.30;3.28;;;5.30;99.90;;;;;;5112026;28;20113;-62
2022/12/30 09:23:43;;;;;;;20.23;3.60;;;5.40;99.90;;;;;;5112064;28;20049;-61
2022/12/30 09:26:14;;;;;;;10.93;3.08;;;5.40;99.90;;;;;;5112023;28;20069;-61
2022/12/30 09:28:39;;;;;;;18.92;3.05;;;5.50;99.90;;;;;;5093928;28;20036;-61
2022/12/30 09:31:05;;;;;;;15.88;3.20;;;5.60;99.90;;;;;;5111951;28;20035;-62
2022/12/30 09:33:31;;;;;;;14.70;3.25;;;5.50;99.90;;;;;;5111757;28;20122;-61
2022/12/30 09:35:57;;;;;;;16.33;3.33;;;5.50;99.90;;;;;;5111253;28;20043;-61
2022/12/30 09:38:23;;;;;;;8.85;3.00;;;5.40;99.90;;;;;;5111965;28;20039;-62
2022/12/30 09:41:08;;;;;;;18.92;3.47;;;5.50;99.90;;;;;;5113941;28;20394;-61
2022/12/30 09:44:01;;;;;;;17.02;3.10;;;5.50;99.90;;;;;;5115870;28;20039;-62
2022/12/30 09:46:33;;;;;;;19.75;3.55;;;5.50;99.90;;;;;;5116058;28;20035;-62
2022/12/30 09:49:04;;;;;;;17.38;3.08;;;5.70;99.90;;;;;;5116069;28;20044;-62
2022/12/30 09:51:37;;;;;;;11.73;2.92;;;5.70;99.90;;;;;;5115497;28;20494;-61
2022/12/30 09:54:16;;;;;;;14.15;3.40;;;5.70;99.90;;;;;;5115764;28;20381;-62
2022/12/30 09:56:46;;;;;;;16.30;3.08;;;5.80;99.90;;;;;;5115910;28;20039;-61
2022/12/30 09:59:17;;;;;;;13.60;3.33;;;5.80;99.90;;;;;;5097684;28;20048;-62
2022/12/30 10:01:50;;;;;;;9.35;2.90;;;5.90;99.90;;;;;;5115365;28;20481;-61
2022/12/30 10:04:18;;;;;;;15.35;3.45;;;5.80;99.90;;;;;;5115621;28;20104;-61
2022/12/30 10:07:02;;;;;;;9.15;2.97;;;5.90;99.90;;;;;;5114550;28;20046;-62
2022/12/30 10:09:31;;;;;;;10.05;2.50;;;5.90;99.90;;;;;;5115584;28;20043;-61
2022/12/30 10:12:12;;;;;;;16.50;2.83;;;6.00;99.90;;;;;;5115323;28;20035;-62
2022/12/30 10:14:56;;;;;;;18.83;3.17;;;6.10;99.90;;;;;;5115295;28;20118;-61
2022/12/30 10:17:42;;;;;;;13.38;3.25;;;6.10;99.90;;;;;;5115154;28;20093;-62
2022/12/30 10:20:19;;;;;;;12.60;3.38;;;6.10;99.90;;;;;;5115515;28;20054;-61
2022/12/30 10:23:22;;;;;;;14.80;2.88;;;6.20;99.90;;;;;;5115107;28;20203;-62
2022/12/30 10:26:18;;;;;;;14.15;2.50;;;6.20;99.90;;;;;;5114823;28;20448;-60
2022/12/30 10:29:05;;;;;;;13.45;3.75;;;6.20;99.90;;;;;;5115128;28;20040;-62
2022/12/30 10:31:36;;;;;;;11.13;3.22;;;6.30;99.90;;;;;;5114689;28;20044;-62
2022/12/30 10:34:26;;;;;;;7.13;2.63;;;6.60;99.90;;;;;;5096465;28;20055;-62
2022/12/30 10:37:15;;;;;;;10.77;2.80;;;6.40;99.90;;;;;;5113321;28;20165;-61
2022/12/30 10:39:46;;;;;;;12.55;2.88;;;6.40;99.90;;;;;;5113659;28;20044;-62
2022/12/30 10:42:29;;;;;;;12.07;2.30;;;6.40;99.90;;;;;;5114936;28;20457;-61
2022/12/30 10:45:24;;;;;;;10.63;3.08;;;6.50;99.90;;;;;;5096534;28;20050;-61
2022/12/30 10:48:17;;;;;;;11.45;2.40;;;6.50;99.90;;;;;;5114703;28;20036;-61
2022/12/30 10:50:47;;;;;;;13.82;2.38;;;6.60;99.90;;;;;;5114398;28;20047;-61
2022/12/30 10:53:22;;;;;;;5.57;2.08;;;6.60;99.90;;;;;;5114731;28;20075;-61
2022/12/30 10:55:56;;;;;;;10.32;2.85;;;6.60;99.90;;;;;;5114441;28;20550;-62
2022/12/30 10:58:43;;;;;;;9.35;2.40;;;6.70;99.90;;;;;;5114473;28;20098;-61
2022/12/30 11:01:19;;;;;;;9.48;2.55;;;6.80;99.90;;;;;;5114201;28;20043;-61
2022/12/30 11:03:56;;;;;;;9.93;2.05;;;6.80;99.90;;;;;;5114456;28;20118;-62
2022/12/30 11:06:36;;;;;;;6.85;2.47;;;6.90;99.90;;;;;;5113278;28;20036;-62
2022/12/30 11:09:11;;;;;;;7.97;2.42;;;6.90;99.90;;;;;;5112720;28;20031;-61
2022/12/30 11:14:46;;;;;;;9.35;2.28;;;7.00;99.90;;;;;;5114226;28;20040;-61
2022/12/30 11:17:15;;;;;;;8.32;1.98;;;7.00;99.90;;;;;;5114149;28;20039;-62
2022/12/30 11:19:42;;;;;;;11.20;2.40;;;7.00;99.90;;;;;;5113908;28;20035;-62
2022/12/30 11:22:08;;;;;;;12.30;2.40;;;7.00;99.90;;;;;;5113878;28;20044;-62
2022/12/30 11:24:34;;;;;;;8.95;2.17;;;7.00;99.90;;;;;;5113789;28;20071;-62
2022/12/30 11:27:00;;;;;;;5.38;2.47;;;7.10;99.90;;;;;;5114416;28;20067;-62
2022/12/30 11:29:31;;;;;;;7.10;2.30;;;7.10;99.90;;;;;;5114002;28;20146;-61
2022/12/30 11:31:57;;;;;;;8.45;2.72;;;7.10;99.90;;;;;;5113776;28;20039;-62
2022/12/30 11:34:34;;;;;;;5.35;1.60;;;7.10;99.90;;;;;;5113657;28;20047;-61
2022/12/30 11:37:25;;;;;;;5.57;1.88;;;7.20;99.90;;;;;;5111827;28;20035;-60
2022/12/30 11:39:51;;;;;;;5.95;1.80;;;7.20;99.90;;;;;;5098457;28;20044;-62
2022/12/30 11:42:34;;;;;;;11.10;2.13;;;7.20;99.90;;;;;;5093091;28;20050;-61
2022/12/30 11:45:19;;;;;;;9.55;2.28;;;7.30;99.90;;;;;;5093402;28;20036;-62
2022/12/30 11:47:48;;;;;;;6.15;1.73;;;7.30;99.90;;;;;;5093170;28;20023;-62
2022/12/30 11:50:15;;;;;;;;;;;7.30;99.90;;;;;;5093440;28;20132;-61
2022/12/30 11:52:49;;;;;;;4.63;1.33;;;7.40;99.90;;;;;;5093071;28;19916;-61
2022/12/30 11:55:24;;;;;;;7.65;1.50;;;7.40;99.90;;;;;;5093299;28;20044;-62
2022/12/30 11:57:51;;;;;;;7.78;2.13;;;7.40;99.90;;;;;;5093027;28;20433;-62
2022/12/30 12:00:17;;;;;;;6.70;1.40;;;7.50;99.90;;;;;;5092893;28;20048;-63
2022/12/30 12:02:56;;;;;;;5.20;1.77;;;7.50;99.90;;;;;;5091989;28;20399;-62
2022/12/30 12:05:22;;;;;;;7.18;1.75;;;7.50;99.90;;;;;;5092371;28;20032;-62
2022/12/30 12:07:53;;;;;;;8.55;1.75;;;7.60;99.90;;;;;;5092525;28;20055;-61
2022/12/30 12:10:30;;;;;;;9.57;1.90;;;7.60;99.90;;;;;;5092770;28;20036;-62
2022/12/30 12:13:00;;;;;;;7.57;1.70;;;7.60;99.90;;;;;;5092714;28;20545;-61
2022/12/30 12:15:40;;;;;;;9.38;1.55;;;7.70;99.90;;;;;;5086263;28;20040;-62
2022/12/30 12:18:37;;;;;;;9.05;2.08;;;7.70;99.90;;;;;;5112933;28;20078;-61
2022/12/30 12:21:28;;;;;;;6.65;1.60;;;7.70;99.90;;;;;;5094641;28;20036;-61
2022/12/30 12:24:19;;;;;;;8.77;2.03;;;7.70;99.90;;;;;;5112692;28;20397;-61
2022/12/30 12:27:02;;;;;;;5.43;1.70;;;7.80;99.90;;;;;;5112985;28;20043;-61
2022/12/30 12:29:28;;;;;;;7.97;1.63;;;7.80;99.90;;;;;;5112792;28;20062;-62
2022/12/30 12:32:03;;;;;;;9.77;2.70;;;7.80;99.90;;;;;;5112748;28;20085;-61
2022/12/30 12:34:47;;;;;;;10.13;1.33;;;7.80;99.90;;;;;;5112683;28;20031;-62
2022/12/30 12:37:21;;;;;;;6.32;1.63;;;7.80;99.90;;;;;;5112233;28;20035;-63
2022/12/30 12:39:47;;;;;;;7.00;1.70;;;7.90;99.90;;;;;;5112795;28;20103;-62
2022/12/30 12:42:22;;;;;;;7.00;1.65;;;7.90;99.90;;;;;;5093644;28;20051;-62
2022/12/30 12:45:01;;;;;;;4.43;1.63;;;8.00;99.90;;;;;;5112553;28;20035;-61
2022/12/30 12:47:39;;;;;;;5.85;1.77;;;8.10;99.90;;;;;;5112444;28;20114;-62
2022/12/30 12:50:16;;;;;;;5.35;1.45;;;8.10;99.90;;;;;;5112616;28;20122;-61
2022/12/30 12:52:50;;;;;;;9.73;1.55;;;8.10;99.90;;;;;;5112391;28;20040;-61
2022/12/30 12:55:27;;;;;;;7.47;1.90;;;8.10;99.90;;;;;;5112853;28;20075;-62
2022/12/30 12:57:52;;;;;;;3.67;1.38;;;8.10;99.90;;;;;;5112106;28;20044;-61
2022/12/30 13:00:20;;;;;;;4.85;1.77;;;8.20;99.90;;;;;;5112150;28;20042;-62
2022/12/30 13:03:19;;;;;;;5.72;1.52;;;8.30;99.90;;;;;;5093550;28;20075;-61
2022/12/30 13:06:10;;;;;;;5.82;1.90;;;8.20;99.90;;;;;;5111932;28;20031;-62
2022/12/30 13:08:35;;;;;;;5.40;1.67;;;8.20;99.90;;;;;;5093963;28;20062;-61
2022/12/30 13:11:22;;;;;;;10.13;2.22;;;8.30;99.90;;;;;;5112304;28;20477;-62
2022/12/30 13:14:10;;;;;;;6.70;1.92;;;8.40;99.90;;;;;;5093901;28;20052;-62
2022/12/30 13:16:40;;;;;;;3.65;1.80;;;8.40;99.90;;;;;;5115631;28;20599;-61
2022/12/30 13:19:16;;;;;;;7.28;1.77;;;8.30;99.90;;;;;;5116633;28;20119;-61
2022/12/30 13:21:44;;;;;;;5.88;1.38;;;8.40;99.90;;;;;;5116080;28;20071;-61
2022/12/30 13:24:16;;;;;;;7.55;1.98;;;8.40;99.90;;;;;;5116012;28;20055;-61
2022/12/30 13:26:42;;;;;;;9.65;1.83;;;8.40;99.90;;;;;;5116129;28;20047;-61
2022/12/30 13:29:13;;;;;;;4.93;1.70;;;8.40;99.90;;;;;;5116317;28;20036;-62
2022/12/30 13:31:55;;;;;;;5.05;1.77;;;8.40;99.90;;;;;;5116342;28;20050;-62
2022/12/30 13:35:04;;;;;;;6.15;1.88;;;8.40;99.90;;;;;;5116118;28;20370;-62
2022/12/30 13:37:35;;;;;;;8.00;2.20;;;8.50;99.90;;;;;;5116469;28;20110;-62
2022/12/30 13:40:16;;;;;;;5.47;1.80;;;8.50;99.90;;;;;;5115724;28;20047;-61
2022/12/30 13:42:52;;;;;;;5.43;2.20;;;8.50;99.90;;;;;;5116062;28;20500;-61
2022/12/30 13:45:21;;;;;;;9.75;2.05;;;8.60;99.90;;;;;;5115853;28;20079;-60
2022/12/30 13:47:47;;;;;;;5.85;1.80;;;8.60;99.90;;;;;;5097508;28;20040;-61
2022/12/30 13:50:17;;;;;;;8.98;2.20;;;8.60;99.90;;;;;;5115862;28;20036;-61
2022/12/30 13:52:48;;;;;;;9.20;2.28;;;8.70;99.90;;;;;;5115725;28;20513;-62
2022/12/30 13:55:32;;;;;;;11.70;2.47;;;8.70;99.90;;;;;;5115572;28;20104;-60
2022/12/30 13:58:01;;;;;;;3.67;1.50;;;8.70;99.90;;;;;;5115591;28;20049;-62
2022/12/30 14:00:33;;;;;;;7.93;1.80;;;8.80;99.90;;;;;;5115543;28;20477;-61
2022/12/30 14:02:59;;;;;;;10.35;2.58;;;8.80;99.90;;;;;;5115742;28;20031;-61
2022/12/30 14:05:37;;;;;;;4.80;1.50;;;8.90;99.90;;;;;;5097334;28;20459;-62